createdAt,value
2023-10-20T00:01:10.833Z,7.50
2023-10-20T00:03:38.847Z,7.68
2023-10-20T00:06:06.833Z,6.63
2023-10-20T00:08:34.472Z,7.28
2023-10-20T00:11:05.072Z,6.35
2023-10-20T00:13:34.310Z,6.57
2023-10-20T00:16:02.066Z,7.45
2023-10-20T00:18:31.874Z,7.53
2023-10-20T00:20:59.922Z,7.03
2023-10-20T00:23:27.585Z,7.38
2023-10-20T00:25:55.205Z,7.78
2023-10-20T00:28:22.895Z,7.30
2023-10-20T00:30:50.461Z,7.57
2023-10-20T00:33:18.760Z,7.50
2023-10-20T00:35:47.709Z,8.25
2023-10-20T00:38:15.308Z,9.20
2023-10-20T00:40:47.765Z,8.30
2023-10-20T00:43:15.697Z,9.03
2023-10-20T00:45:45.928Z,8.60
2023-10-20T00:48:14.120Z,7.82
2023-10-20T00:50:41.921Z,8.95
2023-10-20T00:53:12.326Z,11.45
2023-10-20T00:55:41.208Z,8.40
2023-10-20T00:58:09.515Z,9.65
2023-10-20T01:00:37.089Z,10.38
2023-10-20T01:03:06.053Z,9.55
2023-10-20T01:05:34.043Z,8.80
2023-10-20T01:08:01.740Z,10.90
2023-10-20T01:10:30.787Z,9.88
2023-10-20T01:12:58.354Z,9.77
2023-10-20T01:15:26.060Z,11.05
2023-10-20T01:17:53.797Z,10.75
2023-10-20T01:20:21.436Z,12.27
2023-10-20T01:22:50.594Z,12.18
2023-10-20T01:25:19.638Z,11.40
2023-10-20T01:27:47.204Z,11.45
2023-10-20T01:30:14.957Z,12.60
2023-10-20T01:32:43.656Z,12.77
2023-10-20T01:35:11.756Z,12.32
2023-10-20T01:37:39.412Z,11.70
2023-10-20T01:40:09.687Z,11.63
2023-10-20T01:42:38.651Z,11.23
2023-10-20T01:45:07.254Z,11.53
2023-10-20T01:47:35.933Z,12.15
2023-10-20T01:50:03.749Z,11.43
2023-10-20T01:52:31.744Z,12.85
2023-10-20T01:54:59.964Z,12.23
2023-10-20T01:57:28.202Z,12.07
2023-10-20T01:59:57.189Z,12.73
2023-10-20T02:02:24.936Z,13.65
2023-10-20T02:04:52.552Z,12.48
2023-10-20T02:07:20.162Z,12.95
2023-10-20T02:09:47.729Z,12.43
2023-10-20T02:12:15.645Z,12.43
2023-10-20T02:14:43.304Z,13.45
2023-10-20T02:17:12.360Z,11.85
2023-10-20T02:19:40.005Z,13.10
2023-10-20T02:22:07.566Z,13.00
2023-10-20T02:24:35.340Z,13.27
2023-10-20T02:27:03.036Z,13.40
2023-10-20T02:29:31.274Z,11.88
2023-10-20T02:31:59.027Z,13.60
2023-10-20T02:34:28.064Z,12.10
2023-10-20T02:36:55.614Z,12.02
2023-10-20T02:39:23.269Z,16.70
2023-10-20T02:41:50.883Z,12.52
2023-10-20T02:44:18.495Z,11.90
2023-10-20T02:46:46.103Z,13.97
2023-10-20T02:49:13.733Z,13.23
2023-10-20T02:51:42.696Z,13.00
2023-10-20T02:54:11.285Z,13.27
2023-10-20T02:56:39.477Z,12.63
2023-10-20T02:59:07.181Z,11.03
2023-10-20T03:01:34.940Z,12.63
2023-10-20T03:04:02.765Z,11.25
2023-10-20T03:06:30.425Z,10.77
2023-10-20T03:08:59.337Z,11.68
2023-10-20T03:11:27.021Z,11.93
2023-10-20T03:13:54.719Z,11.63
2023-10-20T03:16:22.489Z,11.95
2023-10-20T03:18:50.222Z,11.32
2023-10-20T03:21:19.280Z,12.38
2023-10-20T03:23:46.865Z,10.33
2023-10-20T03:26:15.893Z,12.25
2023-10-20T03:28:44.675Z,13.50
2023-10-20T03:31:12.505Z,11.57
2023-10-20T03:33:40.154Z,12.27
2023-10-20T03:36:08.030Z,11.90
2023-10-20T03:38:35.730Z,13.15
2023-10-20T03:41:07.706Z,14.75
2023-10-20T03:43:37.330Z,13.13
2023-10-20T03:46:06.340Z,12.48
2023-10-20T03:48:36.501Z,11.93
2023-10-20T03:51:06.607Z,12.27
2023-10-20T03:53:42.483Z,12.60
2023-10-20T03:56:10.759Z,14.02
2023-10-20T03:58:39.959Z,12.35
2023-10-20T04:01:09.018Z,14.20
2023-10-20T04:03:36.651Z,13.05
2023-10-20T04:06:07.412Z,14.18
2023-10-20T04:08:35.239Z,14.88
2023-10-20T04:11:03.313Z,13.23
2023-10-20T04:13:33.062Z,12.73
2023-10-20T04:16:13.109Z,13.10
2023-10-20T04:18:41.239Z,13.10
2023-10-20T04:21:09.005Z,11.70
2023-10-20T04:23:37.950Z,13.52
2023-10-20T04:26:06.027Z,12.87
2023-10-20T04:28:38.150Z,13.50
2023-10-20T04:31:24.926Z,12.35
2023-10-20T04:34:10.366Z,12.50
2023-10-20T04:36:55.880Z,12.13
2023-10-20T04:39:41.269Z,12.57
2023-10-20T04:42:22.796Z,13.38
2023-10-20T04:45:00.071Z,10.63
2023-10-20T04:47:46.479Z,11.43
2023-10-20T04:50:40.155Z,15.88
2023-10-20T04:53:13.632Z,11.73
2023-10-20T04:56:07.242Z,11.25
2023-10-20T04:58:46.786Z,10.48
2023-10-20T05:01:22.503Z,10.27
2023-10-20T05:03:54.616Z,10.23
2023-10-20T05:06:23.927Z,13.50
2023-10-20T05:08:52.783Z,9.20
2023-10-20T05:11:20.880Z,10.10
2023-10-20T05:13:48.556Z,9.02
2023-10-20T05:16:16.279Z,10.07
2023-10-20T05:18:45.713Z,12.27
2023-10-20T05:21:14.869Z,10.50
2023-10-20T05:23:44.989Z,11.05
2023-10-20T05:26:12.735Z,11.05
2023-10-20T05:28:40.346Z,13.32
2023-10-20T05:31:08.499Z,9.77
2023-10-20T05:33:36.074Z,10.48
2023-10-20T05:36:05.445Z,11.40
2023-10-20T05:38:34.469Z,10.95
2023-10-20T05:41:02.326Z,10.98
2023-10-20T05:43:31.264Z,10.03
2023-10-20T05:45:58.875Z,10.30
2023-10-20T05:48:26.643Z,9.57
2023-10-20T05:50:58.608Z,9.98
2023-10-20T05:53:26.458Z,9.52
2023-10-20T05:55:55.505Z,10.00
2023-10-20T05:58:23.464Z,9.35
2023-10-20T06:01:02.351Z,9.45
2023-10-20T06:03:32.044Z,10.23
2023-10-20T06:06:01.371Z,10.35
2023-10-20T06:08:30.695Z,10.67
2023-10-20T06:11:07.194Z,10.80
2023-10-20T06:13:36.698Z,10.57
2023-10-20T06:16:11.277Z,10.18
2023-10-20T06:18:39.965Z,10.95
2023-10-20T06:21:08.822Z,12.03
2023-10-20T06:23:36.537Z,12.38
2023-10-20T06:26:05.618Z,11.85
2023-10-20T06:28:33.139Z,11.77
2023-10-20T06:31:01.919Z,12.93
2023-10-20T06:33:34.075Z,10.80
2023-10-20T06:36:11.502Z,28.13
2023-10-20T06:38:46.305Z,13.25
2023-10-20T06:41:15.674Z,11.25
2023-10-20T06:43:43.319Z,11.02
2023-10-20T06:46:11.145Z,13.13
2023-10-20T06:48:38.999Z,12.10
2023-10-20T06:51:06.681Z,13.35
2023-10-20T06:53:34.326Z,12.38
2023-10-20T06:58:38.730Z,11.83
2023-10-20T07:01:07.343Z,12.30
2023-10-20T07:03:35.806Z,12.55
2023-10-20T07:06:08.176Z,13.60
2023-10-20T07:08:36.273Z,13.88
2023-10-20T07:11:04.980Z,13.13
2023-10-20T07:13:33.754Z,13.73
2023-10-20T07:16:03.032Z,16.65
2023-10-20T07:18:30.788Z,13.70
2023-10-20T07:20:59.072Z,16.98
2023-10-20T07:23:27.295Z,17.80
2023-10-20T07:25:55.113Z,16.42
2023-10-20T07:28:22.881Z,16.38
2023-10-20T07:30:51.501Z,15.23
2023-10-20T07:33:20.469Z,17.48
2023-10-20T07:35:48.690Z,17.40
2023-10-20T07:38:16.756Z,17.60
2023-10-20T07:40:44.349Z,17.00
2023-10-20T07:43:12.229Z,18.02
2023-10-20T07:45:41.587Z,15.88
2023-10-20T07:48:11.922Z,16.33
2023-10-20T07:50:43.322Z,15.52
2023-10-20T07:53:12.002Z,16.33
2023-10-20T07:55:39.606Z,19.73
2023-10-20T07:58:10.091Z,16.33
2023-10-20T08:00:38.085Z,17.47
2023-10-20T08:03:06.661Z,17.13
2023-10-20T08:05:37.002Z,15.63
2023-10-20T08:08:07.355Z,18.02
2023-10-20T08:10:35.189Z,16.65
2023-10-20T08:13:03.671Z,14.80
2023-10-20T08:15:31.621Z,15.25
2023-10-20T08:17:59.435Z,14.40
2023-10-20T08:20:27.119Z,15.75
2023-10-20T08:22:54.740Z,17.55
2023-10-20T08:25:23.732Z,15.27
2023-10-20T08:27:51.915Z,15.80
2023-10-20T08:30:21.325Z,17.38
2023-10-20T08:32:49.142Z,16.23
2023-10-20T08:35:16.948Z,15.10
2023-10-20T08:37:44.637Z,14.67
2023-10-20T08:40:13.398Z,16.83
2023-10-20T08:42:43.515Z,19.25
2023-10-20T08:45:14.155Z,14.20
2023-10-20T08:47:42.947Z,14.02
2023-10-20T08:50:11.398Z,14.50
2023-10-20T08:52:40.463Z,13.65
2023-10-20T08:55:09.308Z,13.50
2023-10-20T08:57:36.974Z,14.10
2023-10-20T09:00:08.447Z,16.00
2023-10-20T09:02:39.894Z,14.27
2023-10-20T09:05:08.424Z,13.27
2023-10-20T09:07:36.017Z,14.10
2023-10-20T09:10:04.054Z,13.27
2023-10-20T09:12:33.925Z,14.32
2023-10-20T09:15:01.589Z,13.43
2023-10-20T09:17:35.043Z,12.77
2023-10-20T09:20:07.556Z,14.48
2023-10-20T09:22:35.570Z,16.45
2023-10-20T09:25:03.698Z,13.23
2023-10-20T09:27:31.585Z,12.67
2023-10-20T09:30:00.294Z,13.10
2023-10-20T09:32:28.821Z,12.75
2023-10-20T09:34:58.941Z,12.65
2023-10-20T09:37:31.015Z,14.57
2023-10-20T09:40:07.430Z,13.77
2023-10-20T09:42:45.155Z,11.77
2023-10-20T09:45:18.248Z,12.65
2023-10-20T09:47:53.136Z,12.70
2023-10-20T09:50:24.629Z,12.52
2023-10-20T09:52:54.583Z,11.50
2023-10-20T09:55:23.110Z,14.05
2023-10-20T09:57:51.358Z,10.85
2023-10-20T10:00:31.767Z,12.02
2023-10-20T10:03:00.480Z,10.35
2023-10-20T10:05:32.066Z,9.30
2023-10-20T10:08:08.719Z,9.40
2023-10-20T10:10:37.020Z,9.93
2023-10-20T10:13:07.021Z,9.80
2023-10-20T10:15:39.836Z,9.07
2023-10-20T10:18:10.723Z,9.97
2023-10-20T10:20:47.031Z,9.73
2023-10-20T10:23:15.811Z,8.63
2023-10-20T10:25:45.006Z,11.50
2023-10-20T10:28:14.953Z,10.25
2023-10-20T10:30:46.632Z,9.23
2023-10-20T10:33:14.906Z,9.13
2023-10-20T10:35:44.013Z,9.13
2023-10-20T10:38:20.623Z,8.20
2023-10-20T10:40:49.507Z,9.23
2023-10-20T10:43:20.399Z,8.10
2023-10-20T10:45:54.772Z,10.25
2023-10-20T10:48:26.989Z,10.35
2023-10-20T10:50:56.071Z,8.60
2023-10-20T10:53:23.870Z,7.53
2023-10-20T10:55:51.589Z,9.37
2023-10-20T10:58:19.980Z,8.20
2023-10-20T11:00:48.180Z,7.88
2023-10-20T11:03:16.431Z,8.90
2023-10-20T11:05:44.962Z,8.95
2023-10-20T11:08:16.139Z,8.30
2023-10-20T11:10:48.198Z,8.23
2023-10-20T11:13:17.448Z,8.00
2023-10-20T11:15:45.577Z,8.38
2023-10-20T11:18:13.390Z,9.15
2023-10-20T11:20:44.690Z,8.50
2023-10-20T11:23:15.415Z,7.85
2023-10-20T11:25:43.745Z,7.63
2023-10-20T11:28:11.592Z,8.65
2023-10-20T11:30:43.243Z,6.95
2023-10-20T11:33:15.695Z,7.03
2023-10-20T11:35:44.203Z,7.38
2023-10-20T11:38:11.809Z,8.02
2023-10-20T11:40:42.796Z,7.97
2023-10-20T11:43:10.405Z,8.60
2023-10-20T11:45:38.109Z,7.70
2023-10-20T11:48:06.432Z,7.72
2023-10-20T11:50:34.055Z,6.55
2023-10-20T11:53:01.756Z,7.80
2023-10-20T11:55:29.375Z,7.82
2023-10-20T11:57:58.427Z,8.00
2023-10-20T12:00:26.116Z,7.03
2023-10-20T12:02:53.884Z,8.05
2023-10-20T12:05:21.740Z,7.50
2023-10-20T12:07:49.363Z,7.68
2023-10-20T12:10:17.085Z,6.83
2023-10-20T12:12:44.695Z,8.95
2023-10-20T12:15:13.744Z,6.07
2023-10-20T12:17:42.820Z,7.05
2023-10-20T12:20:11.688Z,6.15
2023-10-20T12:22:39.251Z,9.10
2023-10-20T12:25:07.765Z,7.82
2023-10-20T12:27:35.378Z,7.45
2023-10-20T12:30:03.232Z,9.63
2023-10-20T12:32:32.904Z,6.00
2023-10-20T12:35:00.581Z,5.80
2023-10-20T12:37:28.157Z,6.47
2023-10-20T12:39:55.812Z,6.35
2023-10-20T12:42:23.629Z,6.30
2023-10-20T12:44:51.251Z,6.80
2023-10-20T12:47:20.373Z,7.93
2023-10-20T12:49:49.290Z,5.97
2023-10-20T12:52:16.817Z,7.78
2023-10-20T12:54:44.416Z,6.45
2023-10-20T12:57:12.567Z,6.15
2023-10-20T12:59:40.280Z,6.30
2023-10-20T13:02:08.163Z,6.30
2023-10-20T13:04:36.200Z,6.95
2023-10-20T13:07:05.330Z,5.82
2023-10-20T13:09:32.983Z,5.57
2023-10-20T13:12:00.700Z,6.40
2023-10-20T13:14:29.231Z,6.50
2023-10-20T13:16:58.030Z,5.80
2023-10-20T13:19:25.663Z,5.95
2023-10-20T13:21:53.802Z,7.43
2023-10-20T13:24:22.745Z,5.80
2023-10-20T13:26:50.467Z,6.10
2023-10-20T13:29:18.127Z,6.30
2023-10-20T13:31:45.737Z,5.95
2023-10-20T13:34:13.440Z,7.28
2023-10-20T13:36:41.145Z,8.13
2023-10-20T13:41:40.808Z,8.50
2023-10-20T13:44:11.156Z,8.77
2023-10-20T13:46:38.784Z,8.63
2023-10-20T13:49:07.238Z,10.77
2023-10-20T13:51:35.115Z,6.18
2023-10-20T13:54:02.731Z,8.68
2023-10-20T13:56:30.430Z,6.32
2023-10-20T13:59:00.276Z,5.90
2023-10-20T14:01:27.945Z,6.27
2023-10-20T14:03:56.217Z,5.53
2023-10-20T14:06:25.271Z,5.80
2023-10-20T14:08:53.908Z,5.28
2023-10-20T14:11:21.710Z,5.70
2023-10-20T14:13:49.339Z,6.03
2023-10-20T14:16:18.411Z,5.95
2023-10-20T14:18:46.056Z,7.15
2023-10-20T14:21:13.825Z,5.97
2023-10-20T14:23:41.457Z,5.13
2023-10-20T14:26:09.117Z,6.03
2023-10-20T14:28:37.819Z,5.78
2023-10-20T14:31:06.391Z,5.40
2023-10-20T14:33:35.926Z,5.57
2023-10-20T14:36:03.709Z,6.53
2023-10-20T14:38:31.822Z,5.80
2023-10-20T14:41:03.806Z,7.50
2023-10-20T14:43:33.420Z,5.43
2023-10-20T14:46:01.662Z,5.95
2023-10-20T14:48:29.638Z,5.50
2023-10-20T14:50:59.702Z,6.20
2023-10-20T14:53:27.628Z,6.85
2023-10-20T14:55:56.186Z,6.97
2023-10-20T14:58:23.896Z,6.10
2023-10-20T15:00:52.350Z,6.50
2023-10-20T15:03:22.065Z,6.20
2023-10-20T15:05:50.939Z,6.60
2023-10-20T15:08:20.810Z,7.15
2023-10-20T15:10:48.437Z,6.00
2023-10-20T15:13:17.282Z,6.35
2023-10-20T15:15:44.962Z,6.07
2023-10-20T15:18:12.681Z,5.90
2023-10-20T15:20:42.138Z,6.93
2023-10-20T15:23:17.243Z,5.20
2023-10-20T15:25:48.237Z,6.13
2023-10-20T15:28:16.078Z,6.27
2023-10-20T15:30:43.613Z,6.47
2023-10-20T15:33:11.349Z,7.68
2023-10-20T15:35:40.708Z,5.30
2023-10-20T15:38:11.259Z,7.22
2023-10-20T15:40:39.185Z,6.17
2023-10-20T15:43:08.251Z,5.95
2023-10-20T15:45:36.050Z,5.45
2023-10-20T15:48:04.888Z,6.05
2023-10-20T15:50:33.575Z,6.20
2023-10-20T15:53:01.588Z,6.37
2023-10-20T15:55:29.293Z,6.05
2023-10-20T15:57:56.885Z,5.18
2023-10-20T16:00:26.187Z,6.35
2023-10-20T16:02:53.879Z,6.05
2023-10-20T16:05:21.525Z,5.30
2023-10-20T16:07:49.074Z,6.07
2023-10-20T16:10:16.954Z,6.32
2023-10-20T16:12:44.626Z,5.93
2023-10-20T16:15:13.780Z,6.28
2023-10-20T16:17:42.900Z,5.83
2023-10-20T16:20:11.922Z,7.15
2023-10-20T16:22:39.510Z,5.00
2023-10-20T16:25:08.317Z,5.95
2023-10-20T16:27:35.888Z,5.53
2023-10-20T16:30:06.203Z,9.63
2023-10-20T16:32:35.518Z,7.50
2023-10-20T16:35:05.152Z,6.18
2023-10-20T16:37:32.814Z,5.40
2023-10-20T16:40:01.370Z,5.28
2023-10-20T16:42:29.078Z,5.20
2023-10-20T16:44:56.725Z,5.82
2023-10-20T16:47:25.033Z,5.10
2023-10-20T16:49:53.013Z,5.32
2023-10-20T16:52:21.980Z,4.90
2023-10-20T16:54:52.364Z,5.90
2023-10-20T16:57:20.450Z,35.65
2023-10-20T16:59:48.150Z,9.77
2023-10-20T17:02:16.391Z,18.67
2023-10-20T17:04:44.020Z,6.97
2023-10-20T17:07:11.750Z,4.90
2023-10-20T17:09:40.744Z,7.47
2023-10-20T17:12:08.928Z,4.95
2023-10-20T17:14:36.562Z,4.30
2023-10-20T17:17:04.378Z,4.40
2023-10-20T17:19:31.963Z,6.13
2023-10-20T17:21:59.831Z,6.25
2023-10-20T17:24:27.864Z,5.60
2023-10-20T17:26:56.870Z,6.22
2023-10-20T17:29:24.418Z,7.13
2023-10-20T17:31:52.072Z,4.30
2023-10-20T17:34:19.829Z,4.10
2023-10-20T17:36:47.514Z,5.20
2023-10-20T17:39:15.471Z,3.90
2023-10-20T17:41:43.105Z,4.40
2023-10-20T17:44:12.038Z,5.73
2023-10-20T17:46:39.646Z,5.05
2023-10-20T17:49:07.231Z,4.22
2023-10-20T17:51:36.020Z,4.00
2023-10-20T17:54:03.762Z,3.75
2023-10-20T17:56:31.445Z,6.77
2023-10-20T17:58:59.384Z,7.15
2023-10-20T18:01:28.804Z,8.38
2023-10-20T18:03:56.594Z,5.22
2023-10-20T18:06:24.452Z,3.90
2023-10-20T18:08:53.079Z,4.20
2023-10-20T18:11:21.866Z,4.53
2023-10-20T18:13:51.877Z,4.78
2023-10-20T18:16:22.252Z,6.45
2023-10-20T18:18:51.687Z,4.78
2023-10-20T18:21:20.965Z,3.87
2023-10-20T18:23:49.197Z,3.90
2023-10-20T18:26:17.553Z,4.10
2023-10-20T18:28:45.268Z,3.88
2023-10-20T18:31:14.077Z,3.85
2023-10-20T18:33:42.283Z,3.90
2023-10-20T18:36:12.431Z,3.38
2023-10-20T18:38:40.111Z,4.07
2023-10-20T18:41:14.515Z,3.35
2023-10-20T18:43:42.193Z,4.03
2023-10-20T18:46:10.253Z,5.00
2023-10-20T18:48:38.056Z,6.03
2023-10-20T18:51:06.238Z,4.57
2023-10-20T18:53:36.544Z,4.70
2023-10-20T18:56:05.110Z,3.70
2023-10-20T18:58:32.863Z,3.60
2023-10-20T19:01:00.940Z,3.78
2023-10-20T19:03:32.569Z,3.85
2023-10-20T19:06:00.401Z,3.22
2023-10-20T19:08:28.143Z,4.25
2023-10-20T19:11:00.347Z,3.60
2023-10-20T19:13:27.940Z,3.40
2023-10-20T19:15:57.084Z,3.60
2023-10-20T19:18:25.139Z,4.30
2023-10-20T19:20:57.932Z,3.85
2023-10-20T19:23:25.673Z,5.33
2023-10-20T19:26:01.117Z,3.50
2023-10-20T19:28:29.905Z,3.47
2023-10-20T19:31:01.577Z,3.30
2023-10-20T19:33:29.702Z,4.85
2023-10-20T19:35:57.582Z,4.50
2023-10-20T19:38:25.860Z,6.15
2023-10-20T19:40:53.923Z,4.93
2023-10-20T19:43:23.312Z,3.72
2023-10-20T19:45:51.475Z,3.90
2023-10-20T19:48:19.241Z,3.50
2023-10-20T19:50:47.664Z,4.05
2023-10-20T19:53:15.348Z,3.92
2023-10-20T19:55:43.952Z,4.13
2023-10-20T19:58:11.963Z,3.70
2023-10-20T20:00:41.469Z,4.23
2023-10-20T20:03:09.658Z,6.57
2023-10-20T20:05:37.485Z,6.95
2023-10-20T20:08:05.524Z,4.85
2023-10-20T20:10:33.172Z,3.70
2023-10-20T20:13:00.765Z,3.60
2023-10-20T20:15:28.362Z,3.28
2023-10-20T20:17:58.218Z,3.70
2023-10-20T20:20:26.217Z,3.50
2023-10-20T20:22:53.795Z,3.38
2023-10-20T20:25:21.476Z,3.57
2023-10-20T20:27:49.107Z,3.33
2023-10-20T20:30:16.813Z,3.72
2023-10-20T20:32:44.545Z,3.67
2023-10-20T20:35:13.663Z,3.50
2023-10-20T20:37:41.244Z,3.70
2023-10-20T20:40:09.709Z,8.68
2023-10-20T20:42:37.339Z,4.32
2023-10-20T20:45:06.750Z,3.35
2023-10-20T20:47:34.523Z,3.63
2023-10-20T20:50:02.262Z,4.10
2023-10-20T20:52:32.876Z,3.30
2023-10-20T20:55:01.209Z,3.50
2023-10-20T20:57:30.203Z,4.80
2023-10-20T20:59:57.848Z,3.55
2023-10-20T21:02:25.655Z,3.40
2023-10-20T21:04:53.520Z,3.63
2023-10-20T21:07:21.083Z,3.53
2023-10-20T21:09:50.056Z,3.60
2023-10-20T21:12:17.709Z,5.10
2023-10-20T21:14:45.416Z,3.90
2023-10-20T21:17:13.151Z,3.63
2023-10-20T21:19:40.685Z,3.50
2023-10-20T21:22:08.273Z,3.60
2023-10-20T21:24:35.924Z,3.50
2023-10-20T21:27:05.362Z,3.40
2023-10-20T21:29:33.165Z,3.30
2023-10-20T21:32:00.806Z,4.25
2023-10-20T21:34:28.356Z,4.25
2023-10-20T21:36:57.117Z,3.40
2023-10-20T21:39:27.714Z,3.50
2023-10-20T21:41:55.575Z,3.50
2023-10-20T21:44:24.711Z,3.40
2023-10-20T21:46:52.369Z,3.40
2023-10-20T21:49:19.960Z,3.25
2023-10-20T21:51:47.579Z,3.40
2023-10-20T21:54:15.336Z,3.13
2023-10-20T21:56:43.111Z,3.40
2023-10-20T21:59:10.824Z,3.30
2023-10-20T22:01:39.813Z,3.50
2023-10-20T22:04:07.599Z,3.30
2023-10-20T22:06:35.666Z,4.72
2023-10-20T22:09:03.993Z,3.67
2023-10-20T22:11:31.596Z,3.95
2023-10-20T22:13:59.208Z,3.22
2023-10-20T22:16:26.868Z,3.30
2023-10-20T22:18:55.866Z,3.60
2023-10-20T22:21:23.857Z,3.28
2023-10-20T22:23:51.500Z,3.45
2023-10-20T22:26:19.295Z,3.60
2023-10-20T22:28:46.963Z,3.83
2023-10-20T22:31:14.630Z,4.70
2023-10-20T22:33:42.524Z,3.60
2023-10-20T22:36:11.551Z,4.65
2023-10-20T22:38:39.126Z,3.70
2023-10-20T22:41:08.095Z,4.27
2023-10-20T22:43:35.709Z,4.28
2023-10-20T22:46:04.713Z,3.70
2023-10-20T22:48:32.635Z,4.03
2023-10-20T22:51:00.316Z,4.70
2023-10-20T22:53:29.332Z,4.10
2023-10-20T22:55:56.914Z,3.35
2023-10-20T22:58:24.541Z,3.58
2023-10-20T23:00:52.186Z,4.13
2023-10-20T23:03:19.949Z,4.13
2023-10-20T23:05:47.753Z,4.00
2023-10-20T23:08:15.455Z,4.43
2023-10-20T23:10:44.445Z,4.20
2023-10-20T23:13:12.298Z,4.30
2023-10-20T23:15:41.777Z,3.88
2023-10-20T23:18:09.653Z,4.40
2023-10-20T23:20:37.733Z,4.72
2023-10-20T23:23:05.886Z,4.63
2023-10-20T23:25:35.347Z,4.63
2023-10-20T23:28:05.100Z,4.55
2023-10-20T23:30:32.686Z,4.50
2023-10-20T23:33:00.951Z,5.57
2023-10-20T23:35:28.671Z,4.97
2023-10-20T23:37:56.212Z,7.82
2023-10-20T23:40:24.025Z,4.90
2023-10-20T23:42:51.723Z,5.93
2023-10-20T23:45:20.795Z,6.65
2023-10-20T23:47:48.470Z,5.18
2023-10-20T23:50:16.504Z,5.97
2023-10-20T23:52:44.107Z,5.80
2023-10-20T23:55:11.730Z,5.73
2023-10-20T23:57:39.297Z,6.00
